• Join FlightAware (Why Join?)
  • Login
  • US Flag 
12:06AM EDT


 

Airport Tracker/Info


-or-


 

Live Flight TrackerFlight Track Log ✈ FIN666 ✈ 21-Oct-2013 ✈ EKCH / CPH - EFHK / HEL

Flight Track Log - Related Links

Times and Time Zones

All times are in EDT time to prevent confusion due to time zone crossing. See the FIN666 flight status page for this flight to view local times or setup timezone preferences in your user account.

Time Position Orientation Groundspeed Altitude Reporting Facility
EDT Latitude Longitude Course Direction KTS MPH feet Rate Location/Type
07:33AM 55.8329 13.1000 49° Northeast  Level Estimated
07:34AM 55.9042 13.2491 50° Northeast  Level Estimated
07:35AM 55.9753 13.3988 50° Northeast  Level Estimated
07:36AM 56.0462 13.5490 50° Northeast  Level Estimated
07:37AM 56.1210 13.7085 50° Northeast  Level Estimated
07:38AM 56.1957 13.8686 50° Northeast  Level Estimated
07:39AM 56.2701 14.0294 50° Northeast  Level Estimated
07:40AM 56.3443 14.1908 50° Northeast  Level Estimated
07:41AM 56.4183 14.3528 50° Northeast  Level Estimated
07:42AM 56.4921 14.5154 51° Northeast  Level Estimated
07:43AM 56.5657 14.6787 51° Northeast  Level Estimated
07:44AM 56.6391 14.8426 51° Northeast  Level Estimated
07:45AM 56.7122 15.0072 51° Northeast  Level Estimated
07:46AM 56.7852 15.1724 51° Northeast  Level Estimated
07:47AM 56.8579 15.3382 51° Northeast  Level Estimated
07:48AM 56.9304 15.5047 51° Northeast  Level Estimated
07:49AM 57.0026 15.6718 52° Northeast  Level Estimated
07:50AM 57.0747 15.8396 52° Northeast  Level Estimated
07:51AM 57.1465 16.0080 52° Northeast  Level Estimated
07:52AM 57.2181 16.1771 52° Northeast  Level Estimated
07:53AM 57.2895 16.3468 52° Northeast  Level Estimated
07:54AM 57.3606 16.5172 52° Northeast  Level Estimated
07:55AM 57.4315 16.6883 52° Northeast  Level Estimated
07:56AM 57.5022 16.8600 53° Northeast  Level Estimated
07:57AM 57.5727 17.0324 53° Northeast  Level Estimated
07:58AM 57.6429 17.2054 53° Northeast  Level Estimated
07:59AM 57.7128 17.3792 53° Northeast  Level Estimated
08:00AM 57.7826 17.5535 53° Northeast  Level Estimated
08:01AM 57.8521 17.7286 53° Northeast  Level Estimated
08:02AM 57.9213 17.9044 53° Northeast  Level Estimated
08:03AM 57.9903 18.0808 54° Northeast  Level Estimated
08:04AM 58.0591 18.2579 54° Northeast  Level Estimated
08:05AM 58.1276 18.4356 54° Northeast  Level Estimated
08:06AM 58.1958 18.6141 54° Northeast  Level Estimated
08:07AM 58.2638 18.7933 54° Northeast  Level Estimated
08:08AM 58.3316 18.9731 54° Northeast  Level Estimated
08:09AM 58.3991 19.1536 54° Northeast  Level Estimated
08:10AM 58.4664 19.3349 55° Northeast  Level Estimated
08:11AM 58.5334 19.5168 55° Northeast  Level Estimated
08:12AM 58.6001 19.6994 55° Northeast  Level Estimated
08:13AM 58.6666 19.8827 55° Northeast  Level Estimated
08:14AM 58.7328 20.0667 55° Northeast  Level Estimated
08:15AM 58.7988 20.2514 55° Northeast  Level Estimated
08:16AM 58.8645 20.4368 56° Northeast  Level Estimated
08:17AM 58.9299 20.6229 56° Northeast  Level Estimated
08:18AM 58.9950 20.8097 56° Northeast  Level Estimated
08:19AM 59.0599 20.9973 56° Northeast  Level Estimated
08:20AM 59.1245 21.1855 56° Northeast  Level Estimated
08:21AM 59.1889 21.3744 56° Northeast  Level Estimated
08:22AM 59.2529 21.5641 56° Northeast  Level Estimated
08:23AM 59.3167 21.7544 57° Northeast  Level Estimated
08:24AM 59.3793 21.9428 57° Northeast  Level Estimated
08:25AM 59.4417 22.1318 57° Northeast  Level Estimated
08:26AM 59.5037 22.3216 57° Northeast  Level Estimated
08:27AM 59.5655 22.5120 57° Northeast  Level Estimated
08:28AM 59.6270 22.7031 57° Northeast  Level Estimated
08:29AM 59.6883 22.8950 58° Northeast  Level Estimated
08:30AM 59.7492 23.0875 58° Northeast  Level Estimated
08:31AM 59.8099 23.2807 58° Northeast  Level Estimated
08:32AM 59.8703 23.4747 58° Northeast  Level Estimated
08:33AM 59.9303 23.6693 58° Northeast  Level Estimated
08:34AM 59.9901 23.8647 58° Northeast  Level Estimated
08:35AM 60.0497 24.0607 59° Northeast  Level Estimated
08:36AM 60.1089 24.2575 59° Northeast  Level Estimated
08:37AM 60.1743 24.4769 59° Northeast  Level Estimated
08:38AM 60.2394 24.6973 59° Northeast  Level Estimated
08:39AM 60.3042 24.9185 59° Northeast  Level Estimated
08:40AM 60.3172 24.9633 60° Northeast  Level Estimated
08:41AM 60.3172 24.9633 37° Northeast  Level Estimated
08:42AM 60.3172 24.9633 37° Northeast  Level Estimated
08:43AM 60.3172 24.9633 37° Northeast  Level Estimated
08:44AM 60.3172 24.9633 37° Northeast  Level Estimated
08:45AM 60.3172 24.9633 37° Northeast  Level Estimated
08:46AM 60.3172 24.9633 37° Northeast  Level Estimated
08:47AM 60.3172 24.9633 37° Northeast  Level Estimated
08:48AM 60.3172 24.9633 37° Northeast  Level Estimated
08:49AM 60.3172 24.9633 37° Northeast  Level Estimated